sensor_id;sensor_type;location;lat;lon;timestamp;P1;durP1;ratioP1;P2;durP2;ratioP2
11604;SDS011;5858;43.076;25.626;2023-01-30T00:00:42;15.23;;;9.47;;
11604;SDS011;5858;43.076;25.626;2023-01-30T00:04:13;15.37;;;8.77;;
11604;SDS011;5858;43.076;25.626;2023-01-30T00:07:15;15.53;;;9.60;;
11604;SDS011;5858;43.076;25.626;2023-01-30T00:13:06;14.97;;;8.97;;
11604;SDS011;5858;43.076;25.626;2023-01-30T00:15:36;17.30;;;10.33;;
11604;SDS011;5858;43.076;25.626;2023-01-30T00:18:05;16.63;;;10.37;;
11604;SDS011;5858;43.076;25.626;2023-01-30T00:20:33;15.20;;;10.00;;
11604;SDS011;5858;43.076;25.626;2023-01-30T00:23:14;16.30;;;9.80;;
11604;SDS011;5858;43.076;25.626;2023-01-30T00:25:44;15.43;;;10.47;;
11604;SDS011;5858;43.076;25.626;2023-01-30T00:28:12;15.40;;;9.83;;
11604;SDS011;5858;43.076;25.626;2023-01-30T00:30:40;16.43;;;9.23;;
11604;SDS011;5858;43.076;25.626;2023-01-30T00:33:08;16.47;;;10.17;;
11604;SDS011;5858;43.076;25.626;2023-01-30T00:35:35;16.33;;;10.40;;
11604;SDS011;5858;43.076;25.626;2023-01-30T00:38:03;16.53;;;10.53;;
11604;SDS011;5858;43.076;25.626;2023-01-30T00:40:30;16.37;;;9.43;;
11604;SDS011;5858;43.076;25.626;2023-01-30T00:43:04;16.43;;;9.83;;
11604;SDS011;5858;43.076;25.626;2023-01-30T00:46:14;15.07;;;9.27;;
11604;SDS011;5858;43.076;25.626;2023-01-30T00:49:07;15.33;;;10.33;;
11604;SDS011;5858;43.076;25.626;2023-01-30T00:51:38;16.13;;;9.37;;
11604;SDS011;5858;43.076;25.626;2023-01-30T00:54:07;17.13;;;10.07;;
11604;SDS011;5858;43.076;25.626;2023-01-30T00:56:35;16.43;;;10.20;;
11604;SDS011;5858;43.076;25.626;2023-01-30T00:59:02;13.47;;;8.90;;
11604;SDS011;5858;43.076;25.626;2023-01-30T01:01:30;14.93;;;8.87;;
11604;SDS011;5858;43.076;25.626;2023-01-30T01:03:58;16.87;;;9.30;;
11604;SDS011;5858;43.076;25.626;2023-01-30T01:06:27;16.63;;;9.50;;
11604;SDS011;5858;43.076;25.626;2023-01-30T01:08:55;15.90;;;9.70;;
11604;SDS011;5858;43.076;25.626;2023-01-30T01:11:22;14.87;;;10.13;;
11604;SDS011;5858;43.076;25.626;2023-01-30T01:13:50;13.67;;;9.20;;
11604;SDS011;5858;43.076;25.626;2023-01-30T01:16:21;16.97;;;9.47;;
11604;SDS011;5858;43.076;25.626;2023-01-30T01:18:50;16.23;;;9.23;;
11604;SDS011;5858;43.076;25.626;2023-01-30T01:21:18;15.73;;;10.00;;
11604;SDS011;5858;43.076;25.626;2023-01-30T01:23:48;14.47;;;9.23;;
11604;SDS011;5858;43.076;25.626;2023-01-30T01:26:18;16.80;;;9.50;;
11604;SDS011;5858;43.076;25.626;2023-01-30T01:28:47;15.03;;;9.57;;
11604;SDS011;5858;43.076;25.626;2023-01-30T01:31:16;16.17;;;10.23;;
11604;SDS011;5858;43.076;25.626;2023-01-30T01:33:50;15.53;;;9.77;;
11604;SDS011;5858;43.076;25.626;2023-01-30T01:36:18;15.97;;;9.10;;
11604;SDS011;5858;43.076;25.626;2023-01-30T01:38:45;16.20;;;9.77;;
11604;SDS011;5858;43.076;25.626;2023-01-30T01:41:12;15.63;;;8.87;;
11604;SDS011;5858;43.076;25.626;2023-01-30T01:43:57;13.40;;;8.53;;
11604;SDS011;5858;43.076;25.626;2023-01-30T01:46:26;13.27;;;8.53;;
11604;SDS011;5858;43.076;25.626;2023-01-30T01:49:01;14.43;;;9.40;;
11604;SDS011;5858;43.076;25.626;2023-01-30T01:51:36;15.17;;;9.70;;
11604;SDS011;5858;43.076;25.626;2023-01-30T01:54:07;14.60;;;9.17;;
11604;SDS011;5858;43.076;25.626;2023-01-30T01:56:39;12.10;;;8.27;;
11604;SDS011;5858;43.076;25.626;2023-01-30T01:59:12;13.43;;;8.70;;
11604;SDS011;5858;43.076;25.626;2023-01-30T02:01:45;15.93;;;9.67;;
11604;SDS011;5858;43.076;25.626;2023-01-30T02:04:19;18.37;;;9.63;;
11604;SDS011;5858;43.076;25.626;2023-01-30T02:07:18;16.27;;;9.43;;
11604;SDS011;5858;43.076;25.626;2023-01-30T02:09:54;15.33;;;9.70;;
11604;SDS011;5858;43.076;25.626;2023-01-30T02:12:25;13.10;;;9.53;;
11604;SDS011;5858;43.076;25.626;2023-01-30T02:14:52;14.70;;;9.47;;
11604;SDS011;5858;43.076;25.626;2023-01-30T02:17:23;14.47;;;8.60;;
11604;SDS011;5858;43.076;25.626;2023-01-30T02:19:56;14.10;;;9.80;;
11604;SDS011;5858;43.076;25.626;2023-01-30T02:22:41;15.57;;;9.57;;
11604;SDS011;5858;43.076;25.626;2023-01-30T02:25:32;12.90;;;8.20;;
11604;SDS011;5858;43.076;25.626;2023-01-30T02:28:27;15.17;;;8.67;;
11604;SDS011;5858;43.076;25.626;2023-01-30T02:31:18;15.33;;;8.30;;
11604;SDS011;5858;43.076;25.626;2023-01-30T02:33:58;11.37;;;8.00;;
11604;SDS011;5858;43.076;25.626;2023-01-30T02:36:37;13.23;;;8.17;;
11604;SDS011;5858;43.076;25.626;2023-01-30T02:39:15;14.67;;;9.90;;
11604;SDS011;5858;43.076;25.626;2023-01-30T02:41:55;13.13;;;8.47;;
11604;SDS011;5858;43.076;25.626;2023-01-30T02:44:29;15.07;;;9.23;;
11604;SDS011;5858;43.076;25.626;2023-01-30T02:47:05;13.67;;;8.90;;
11604;SDS011;5858;43.076;25.626;2023-01-30T02:49:37;14.93;;;9.07;;
11604;SDS011;5858;43.076;25.626;2023-01-30T02:52:08;15.00;;;8.97;;
11604;SDS011;5858;43.076;25.626;2023-01-30T02:54:38;13.43;;;8.93;;
11604;SDS011;5858;43.076;25.626;2023-01-30T02:57:14;13.83;;;8.40;;
11604;SDS011;5858;43.076;25.626;2023-01-30T02:59:45;14.20;;;8.57;;
11604;SDS011;5858;43.076;25.626;2023-01-30T03:02:20;17.27;;;9.93;;
11604;SDS011;5858;43.076;25.626;2023-01-30T03:05:12;14.33;;;8.93;;
11604;SDS011;5858;43.076;25.626;2023-01-30T03:08:03;15.67;;;9.80;;
11604;SDS011;5858;43.076;25.626;2023-01-30T03:10:41;14.50;;;9.13;;
11604;SDS011;5858;43.076;25.626;2023-01-30T03:13:16;13.90;;;9.20;;
11604;SDS011;5858;43.076;25.626;2023-01-30T03:15:47;15.33;;;8.77;;
11604;SDS011;5858;43.076;25.626;2023-01-30T03:18:19;13.33;;;8.73;;
11604;SDS011;5858;43.076;25.626;2023-01-30T03:20:47;14.13;;;8.67;;
11604;SDS011;5858;43.076;25.626;2023-01-30T03:23:15;14.47;;;8.50;;
11604;SDS011;5858;43.076;25.626;2023-01-30T03:25:42;15.07;;;8.83;;
11604;SDS011;5858;43.076;25.626;2023-01-30T03:28:12;13.37;;;8.30;;
11604;SDS011;5858;43.076;25.626;2023-01-30T03:30:41;13.13;;;8.00;;
11604;SDS011;5858;43.076;25.626;2023-01-30T03:33:08;13.77;;;7.17;;
11604;SDS011;5858;43.076;25.626;2023-01-30T03:35:37;10.47;;;7.00;;
11604;SDS011;5858;43.076;25.626;2023-01-30T03:38:04;11.07;;;7.13;;
11604;SDS011;5858;43.076;25.626;2023-01-30T03:40:32;11.90;;;7.80;;
11604;SDS011;5858;43.076;25.626;2023-01-30T03:42:59;11.47;;;6.90;;
11604;SDS011;5858;43.076;25.626;2023-01-30T03:45:26;14.03;;;7.60;;
11604;SDS011;5858;43.076;25.626;2023-01-30T03:47:55;12.10;;;6.87;;
11604;SDS011;5858;43.076;25.626;2023-01-30T03:50:22;10.37;;;6.43;;
11604;SDS011;5858;43.076;25.626;2023-01-30T03:52:50;12.47;;;7.30;;
11604;SDS011;5858;43.076;25.626;2023-01-30T03:55:18;12.67;;;7.20;;
11604;SDS011;5858;43.076;25.626;2023-01-30T03:57:45;13.00;;;7.60;;
11604;SDS011;5858;43.076;25.626;2023-01-30T04:00:12;13.27;;;7.43;;
11604;SDS011;5858;43.076;25.626;2023-01-30T04:02:40;11.20;;;7.00;;
11604;SDS011;5858;43.076;25.626;2023-01-30T04:05:07;13.00;;;7.40;;
11604;SDS011;5858;43.076;25.626;2023-01-30T04:07:36;10.37;;;6.63;;
11604;SDS011;5858;43.076;25.626;2023-01-30T04:10:05;10.50;;;6.93;;
11604;SDS011;5858;43.076;25.626;2023-01-30T04:12:33;9.10;;;5.77;;
11604;SDS011;5858;43.076;25.626;2023-01-30T04:15:00;11.90;;;7.53;;
11604;SDS011;5858;43.076;25.626;2023-01-30T04:17:29;10.67;;;7.40;;
11604;SDS011;5858;43.076;25.626;2023-01-30T04:19:57;10.30;;;6.57;;
11604;SDS011;5858;43.076;25.626;2023-01-30T04:22:26;14.23;;;7.93;;
11604;SDS011;5858;43.076;25.626;2023-01-30T04:25:00;10.50;;;7.63;;
11604;SDS011;5858;43.076;25.626;2023-01-30T04:27:33;14.97;;;8.20;;
11604;SDS011;5858;43.076;25.626;2023-01-30T04:30:09;11.87;;;6.73;;
11604;SDS011;5858;43.076;25.626;2023-01-30T04:32:46;13.43;;;7.57;;
11604;SDS011;5858;43.076;25.626;2023-01-30T04:35:51;12.17;;;7.67;;
11604;SDS011;5858;43.076;25.626;2023-01-30T04:38:31;12.53;;;7.93;;
11604;SDS011;5858;43.076;25.626;2023-01-30T04:41:06;24.03;;;11.90;;
11604;SDS011;5858;43.076;25.626;2023-01-30T04:43:40;19.90;;;11.90;;
11604;SDS011;5858;43.076;25.626;2023-01-30T04:46:13;14.93;;;8.83;;
11604;SDS011;5858;43.076;25.626;2023-01-30T04:48:42;12.50;;;7.93;;
11604;SDS011;5858;43.076;25.626;2023-01-30T04:51:10;14.90;;;8.70;;
11604;SDS011;5858;43.076;25.626;2023-01-30T04:53:37;11.80;;;8.13;;
11604;SDS011;5858;43.076;25.626;2023-01-30T04:56:05;14.60;;;9.23;;
11604;SDS011;5858;43.076;25.626;2023-01-30T04:58:42;15.00;;;9.33;;
11604;SDS011;5858;43.076;25.626;2023-01-30T05:01:28;16.00;;;9.70;;
11604;SDS011;5858;43.076;25.626;2023-01-30T05:04:05;12.93;;;8.20;;
11604;SDS011;5858;43.076;25.626;2023-01-30T05:06:37;15.07;;;8.80;;
11604;SDS011;5858;43.076;25.626;2023-01-30T05:09:05;13.33;;;8.07;;
11604;SDS011;5858;43.076;25.626;2023-01-30T05:11:38;15.57;;;9.00;;
11604;SDS011;5858;43.076;25.626;2023-01-30T05:14:07;12.83;;;8.07;;
11604;SDS011;5858;43.076;25.626;2023-01-30T05:16:34;13.57;;;8.57;;
11604;SDS011;5858;43.076;25.626;2023-01-30T05:19:01;12.67;;;8.97;;
11604;SDS011;5858;43.076;25.626;2023-01-30T05:21:30;13.07;;;8.73;;
11604;SDS011;5858;43.076;25.626;2023-01-30T05:23:57;14.93;;;8.33;;
11604;SDS011;5858;43.076;25.626;2023-01-30T05:26:24;14.07;;;7.97;;
11604;SDS011;5858;43.076;25.626;2023-01-30T05:28:52;14.53;;;7.87;;
11604;SDS011;5858;43.076;25.626;2023-01-30T05:31:22;11.33;;;7.33;;
11604;SDS011;5858;43.076;25.626;2023-01-30T05:33:49;14.60;;;8.43;;
11604;SDS011;5858;43.076;25.626;2023-01-30T05:36:18;12.87;;;8.27;;
11604;SDS011;5858;43.076;25.626;2023-01-30T05:38:47;12.90;;;8.07;;
11604;SDS011;5858;43.076;25.626;2023-01-30T05:41:14;12.47;;;7.73;;
11604;SDS011;5858;43.076;25.626;2023-01-30T05:43:42;12.10;;;7.40;;
11604;SDS011;5858;43.076;25.626;2023-01-30T05:46:10;13.03;;;8.23;;
11604;SDS011;5858;43.076;25.626;2023-01-30T05:48:39;17.77;;;9.23;;
11604;SDS011;5858;43.076;25.626;2023-01-30T05:51:17;12.53;;;8.80;;
11604;SDS011;5858;43.076;25.626;2023-01-30T05:53:45;13.23;;;8.53;;
11604;SDS011;5858;43.076;25.626;2023-01-30T05:56:16;19.67;;;10.60;;
11604;SDS011;5858;43.076;25.626;2023-01-30T05:58:53;16.27;;;9.97;;
11604;SDS011;5858;43.076;25.626;2023-01-30T06:01:22;15.97;;;9.83;;
11604;SDS011;5858;43.076;25.626;2023-01-30T06:03:51;16.00;;;10.23;;
11604;SDS011;5858;43.076;25.626;2023-01-30T06:06:18;15.27;;;10.57;;
11604;SDS011;5858;43.076;25.626;2023-01-30T06:08:51;18.97;;;11.60;;
11604;SDS011;5858;43.076;25.626;2023-01-30T06:11:39;27.77;;;16.83;;
11604;SDS011;5858;43.076;25.626;2023-01-30T06:14:07;25.80;;;15.57;;
11604;SDS011;5858;43.076;25.626;2023-01-30T06:16:37;30.77;;;16.30;;
11604;SDS011;5858;43.076;25.626;2023-01-30T06:19:06;30.53;;;18.03;;
11604;SDS011;5858;43.076;25.626;2023-01-30T06:21:41;29.70;;;17.33;;
11604;SDS011;5858;43.076;25.626;2023-01-30T06:24:08;24.70;;;16.03;;
11604;SDS011;5858;43.076;25.626;2023-01-30T06:26:35;28.30;;;16.07;;
11604;SDS011;5858;43.076;25.626;2023-01-30T06:29:02;24.97;;;16.33;;
11604;SDS011;5858;43.076;25.626;2023-01-30T06:31:35;23.10;;;14.27;;
11604;SDS011;5858;43.076;25.626;2023-01-30T06:34:03;23.17;;;13.07;;
11604;SDS011;5858;43.076;25.626;2023-01-30T06:36:38;19.97;;;13.23;;
11604;SDS011;5858;43.076;25.626;2023-01-30T06:39:08;21.37;;;12.43;;
11604;SDS011;5858;43.076;25.626;2023-01-30T06:41:35;17.20;;;10.43;;
11604;SDS011;5858;43.076;25.626;2023-01-30T06:44:03;17.60;;;11.33;;
11604;SDS011;5858;43.076;25.626;2023-01-30T06:46:40;17.40;;;12.30;;
11604;SDS011;5858;43.076;25.626;2023-01-30T06:49:10;24.87;;;16.33;;
11604;SDS011;5858;43.076;25.626;2023-01-30T06:51:43;26.93;;;15.60;;
11604;SDS011;5858;43.076;25.626;2023-01-30T06:54:11;24.93;;;15.90;;
11604;SDS011;5858;43.076;25.626;2023-01-30T06:56:38;25.47;;;14.67;;
11604;SDS011;5858;43.076;25.626;2023-01-30T06:59:06;27.87;;;14.97;;
11604;SDS011;5858;43.076;25.626;2023-01-30T07:01:33;23.30;;;14.40;;
11604;SDS011;5858;43.076;25.626;2023-01-30T07:04:01;23.50;;;14.60;;
11604;SDS011;5858;43.076;25.626;2023-01-30T07:06:29;24.53;;;15.27;;
11604;SDS011;5858;43.076;25.626;2023-01-30T07:08:58;26.40;;;15.80;;
11604;SDS011;5858;43.076;25.626;2023-01-30T07:11:26;24.83;;;14.63;;
11604;SDS011;5858;43.076;25.626;2023-01-30T07:13:53;19.47;;;11.67;;
11604;SDS011;5858;43.076;25.626;2023-01-30T07:16:20;17.23;;;11.23;;
11604;SDS011;5858;43.076;25.626;2023-01-30T07:18:53;14.03;;;9.87;;
11604;SDS011;5858;43.076;25.626;2023-01-30T07:21:21;14.70;;;9.47;;
11604;SDS011;5858;43.076;25.626;2023-01-30T07:23:48;15.67;;;9.53;;
11604;SDS011;5858;43.076;25.626;2023-01-30T07:26:17;17.50;;;10.83;;
11604;SDS011;5858;43.076;25.626;2023-01-30T07:28:45;15.27;;;10.37;;
11604;SDS011;5858;43.076;25.626;2023-01-30T07:31:12;16.03;;;9.40;;
11604;SDS011;5858;43.076;25.626;2023-01-30T07:33:39;17.87;;;10.27;;
11604;SDS011;5858;43.076;25.626;2023-01-30T07:36:07;16.50;;;10.60;;
11604;SDS011;5858;43.076;25.626;2023-01-30T07:38:35;17.23;;;11.57;;
11604;SDS011;5858;43.076;25.626;2023-01-30T07:41:02;17.47;;;10.00;;
11604;SDS011;5858;43.076;25.626;2023-01-30T07:43:31;17.33;;;10.50;;
11604;SDS011;5858;43.076;25.626;2023-01-30T07:45:59;21.57;;;13.73;;
11604;SDS011;5858;43.076;25.626;2023-01-30T07:48:29;20.97;;;13.77;;
11604;SDS011;5858;43.076;25.626;2023-01-30T07:50:58;18.33;;;12.40;;
11604;SDS011;5858;43.076;25.626;2023-01-30T07:53:26;20.50;;;10.83;;
11604;SDS011;5858;43.076;25.626;2023-01-30T07:55:56;16.53;;;10.50;;
11604;SDS011;5858;43.076;25.626;2023-01-30T07:58:23;22.93;;;13.20;;
11604;SDS011;5858;43.076;25.626;2023-01-30T08:00:53;19.93;;;12.10;;
11604;SDS011;5858;43.076;25.626;2023-01-30T08:03:20;15.00;;;10.57;;
11604;SDS011;5858;43.076;25.626;2023-01-30T08:05:48;15.47;;;9.03;;
11604;SDS011;5858;43.076;25.626;2023-01-30T08:08:17;15.77;;;9.17;;
11604;SDS011;5858;43.076;25.626;2023-01-30T08:10:47;20.23;;;10.10;;
11604;SDS011;5858;43.076;25.626;2023-01-30T08:13:14;14.67;;;9.07;;
11604;SDS011;5858;43.076;25.626;2023-01-30T08:15:42;17.23;;;10.13;;
11604;SDS011;5858;43.076;25.626;2023-01-30T08:18:14;14.63;;;8.80;;
11604;SDS011;5858;43.076;25.626;2023-01-30T08:20:43;12.23;;;7.93;;
11604;SDS011;5858;43.076;25.626;2023-01-30T08:23:10;12.77;;;8.27;;
11604;SDS011;5858;43.076;25.626;2023-01-30T08:25:37;12.67;;;8.10;;
11604;SDS011;5858;43.076;25.626;2023-01-30T08:28:04;12.87;;;8.27;;
11604;SDS011;5858;43.076;25.626;2023-01-30T08:30:32;15.50;;;10.03;;
11604;SDS011;5858;43.076;25.626;2023-01-30T08:32:59;13.17;;;9.00;;
11604;SDS011;5858;43.076;25.626;2023-01-30T08:35:28;15.70;;;8.50;;
11604;SDS011;5858;43.076;25.626;2023-01-30T08:37:55;13.57;;;7.73;;
11604;SDS011;5858;43.076;25.626;2023-01-30T08:40:22;13.27;;;8.50;;
11604;SDS011;5858;43.076;25.626;2023-01-30T08:42:50;15.40;;;8.33;;
11604;SDS011;5858;43.076;25.626;2023-01-30T08:45:17;11.60;;;6.90;;
11604;SDS011;5858;43.076;25.626;2023-01-30T08:47:52;11.77;;;7.70;;
11604;SDS011;5858;43.076;25.626;2023-01-30T08:50:43;12.47;;;6.97;;
11604;SDS011;5858;43.076;25.626;2023-01-30T08:53:22;14.13;;;9.13;;
11604;SDS011;5858;43.076;25.626;2023-01-30T08:56:06;13.93;;;8.43;;
11604;SDS011;5858;43.076;25.626;2023-01-30T08:58:47;14.10;;;8.73;;
11604;SDS011;5858;43.076;25.626;2023-01-30T09:01:14;14.50;;;8.23;;
11604;SDS011;5858;43.076;25.626;2023-01-30T09:03:42;13.83;;;8.27;;
11604;SDS011;5858;43.076;25.626;2023-01-30T09:06:11;12.33;;;7.70;;
11604;SDS011;5858;43.076;25.626;2023-01-30T09:08:39;13.07;;;7.03;;
11604;SDS011;5858;43.076;25.626;2023-01-30T09:11:06;11.53;;;7.83;;
11604;SDS011;5858;43.076;25.626;2023-01-30T09:13:33;14.67;;;7.87;;
11604;SDS011;5858;43.076;25.626;2023-01-30T09:16:07;13.80;;;7.93;;
11604;SDS011;5858;43.076;25.626;2023-01-30T09:18:37;11.60;;;7.80;;
11604;SDS011;5858;43.076;25.626;2023-01-30T09:21:05;15.93;;;8.97;;
11604;SDS011;5858;43.076;25.626;2023-01-30T09:23:34;14.43;;;7.90;;
11604;SDS011;5858;43.076;25.626;2023-01-30T09:26:02;17.13;;;8.13;;
11604;SDS011;5858;43.076;25.626;2023-01-30T09:28:31;16.50;;;8.60;;
11604;SDS011;5858;43.076;25.626;2023-01-30T09:31:01;12.13;;;7.63;;
11604;SDS011;5858;43.076;25.626;2023-01-30T09:33:39;14.83;;;8.37;;
11604;SDS011;5858;43.076;25.626;2023-01-30T09:36:13;19.17;;;8.80;;
11604;SDS011;5858;43.076;25.626;2023-01-30T09:38:52;12.60;;;6.40;;
11604;SDS011;5858;43.076;25.626;2023-01-30T09:41:27;12.40;;;6.50;;
11604;SDS011;5858;43.076;25.626;2023-01-30T09:44:30;11.33;;;7.27;;
11604;SDS011;5858;43.076;25.626;2023-01-30T09:47:54;11.00;;;7.20;;
11604;SDS011;5858;43.076;25.626;2023-01-30T09:54:04;10.47;;;6.60;;
11604;SDS011;5858;43.076;25.626;2023-01-30T09:56:42;14.33;;;6.87;;
11604;SDS011;5858;43.076;25.626;2023-01-30T09:59:17;14.53;;;6.97;;
11604;SDS011;5858;43.076;25.626;2023-01-30T10:01:57;10.50;;;6.27;;
11604;SDS011;5858;43.076;25.626;2023-01-30T10:04:55;15.23;;;6.70;;
11604;SDS011;5858;43.076;25.626;2023-01-30T10:07:31;8.63;;;5.80;;
11604;SDS011;5858;43.076;25.626;2023-01-30T10:10:21;13.30;;;6.53;;
11604;SDS011;5858;43.076;25.626;2023-01-30T10:13:03;10.67;;;6.47;;
11604;SDS011;5858;43.076;25.626;2023-01-30T10:15:47;10.83;;;6.57;;
11604;SDS011;5858;43.076;25.626;2023-01-30T10:21:51;15.43;;;8.87;;
11604;SDS011;5858;43.076;25.626;2023-01-30T10:27:23;18.50;;;7.87;;
11604;SDS011;5858;43.076;25.626;2023-01-30T10:29:54;16.07;;;9.40;;
11604;SDS011;5858;43.076;25.626;2023-01-30T10:32:28;10.17;;;7.10;;
11604;SDS011;5858;43.076;25.626;2023-01-30T10:34:59;13.47;;;7.70;;
11604;SDS011;5858;43.076;25.626;2023-01-30T10:37:32;10.43;;;5.53;;
11604;SDS011;5858;43.076;25.626;2023-01-30T10:40:14;10.20;;;6.23;;
11604;SDS011;5858;43.076;25.626;2023-01-30T10:43:12;14.63;;;7.70;;
11604;SDS011;5858;43.076;25.626;2023-01-30T10:45:48;13.93;;;6.80;;
11604;SDS011;5858;43.076;25.626;2023-01-30T10:51:21;12.20;;;8.03;;
11604;SDS011;5858;43.076;25.626;2023-01-30T10:54:01;13.87;;;6.73;;
11604;SDS011;5858;43.076;25.626;2023-01-30T10:56:39;15.17;;;6.43;;
11604;SDS011;5858;43.076;25.626;2023-01-30T10:59:20;11.77;;;5.90;;
11604;SDS011;5858;43.076;25.626;2023-01-30T11:01:54;18.43;;;7.40;;
11604;SDS011;5858;43.076;25.626;2023-01-30T11:04:28;13.07;;;7.10;;
11604;SDS011;5858;43.076;25.626;2023-01-30T11:07:13;10.40;;;6.43;;
11604;SDS011;5858;43.076;25.626;2023-01-30T11:09:41;9.33;;;5.23;;
11604;SDS011;5858;43.076;25.626;2023-01-30T11:12:13;12.23;;;6.00;;
11604;SDS011;5858;43.076;25.626;2023-01-30T11:14:55;16.93;;;7.10;;
11604;SDS011;5858;43.076;25.626;2023-01-30T11:17:28;12.87;;;6.87;;
11604;SDS011;5858;43.076;25.626;2023-01-30T11:20:00;9.17;;;5.83;;
11604;SDS011;5858;43.076;25.626;2023-01-30T11:22:30;10.77;;;6.00;;
11604;SDS011;5858;43.076;25.626;2023-01-30T11:25:03;10.87;;;6.03;;
11604;SDS011;5858;43.076;25.626;2023-01-30T11:27:52;11.67;;;6.87;;
11604;SDS011;5858;43.076;25.626;2023-01-30T11:36:54;10.60;;;6.50;;
11604;SDS011;5858;43.076;25.626;2023-01-30T11:45:40;13.10;;;7.97;;
11604;SDS011;5858;43.076;25.626;2023-01-30T11:51:51;12.73;;;6.43;;
11604;SDS011;5858;43.076;25.626;2023-01-30T12:05:31;18.50;;;9.10;;
11604;SDS011;5858;43.076;25.626;2023-01-30T12:11:28;14.47;;;7.97;;
11604;SDS011;5858;43.076;25.626;2023-01-30T12:14:25;17.63;;;6.40;;
11604;SDS011;5858;43.076;25.626;2023-01-30T12:17:15;13.50;;;7.03;;
11604;SDS011;5858;43.076;25.626;2023-01-30T12:20:24;11.13;;;6.97;;
11604;SDS011;5858;43.076;25.626;2023-01-30T12:23:22;14.07;;;8.50;;
11604;SDS011;5858;43.076;25.626;2023-01-30T12:26:25;11.30;;;6.80;;
11604;SDS011;5858;43.076;25.626;2023-01-30T12:29:12;9.17;;;7.10;;
11604;SDS011;5858;43.076;25.626;2023-01-30T12:32:12;11.73;;;7.13;;
11604;SDS011;5858;43.076;25.626;2023-01-30T12:38:22;15.20;;;10.07;;
11604;SDS011;5858;43.076;25.626;2023-01-30T12:41:28;13.97;;;7.73;;
11604;SDS011;5858;43.076;25.626;2023-01-30T12:51:34;13.83;;;8.07;;
11604;SDS011;5858;43.076;25.626;2023-01-30T12:57:46;21.17;;;8.37;;
11604;SDS011;5858;43.076;25.626;2023-01-30T13:03:34;32.27;;;18.07;;
11604;SDS011;5858;43.076;25.626;2023-01-30T13:06:41;11.70;;;8.90;;
11604;SDS011;5858;43.076;25.626;2023-01-30T13:13:11;13.43;;;9.13;;
11604;SDS011;5858;43.076;25.626;2023-01-30T13:15:56;15.60;;;9.67;;
11604;SDS011;5858;43.076;25.626;2023-01-30T13:18:54;12.60;;;9.00;;
11604;SDS011;5858;43.076;25.626;2023-01-30T13:21:24;19.87;;;12.80;;
11604;SDS011;5858;43.076;25.626;2023-01-30T13:24:03;19.33;;;11.13;;
11604;SDS011;5858;43.076;25.626;2023-01-30T13:26:43;16.43;;;10.50;;
11604;SDS011;5858;43.076;25.626;2023-01-30T13:29:13;19.73;;;11.43;;
11604;SDS011;5858;43.076;25.626;2023-01-30T13:32:13;16.10;;;11.20;;
11604;SDS011;5858;43.076;25.626;2023-01-30T13:34:58;16.60;;;10.80;;
11604;SDS011;5858;43.076;25.626;2023-01-30T13:37:36;18.93;;;10.33;;
11604;SDS011;5858;43.076;25.626;2023-01-30T13:40:14;22.77;;;12.87;;
11604;SDS011;5858;43.076;25.626;2023-01-30T13:43:08;26.70;;;15.30;;
11604;SDS011;5858;43.076;25.626;2023-01-30T13:46:16;15.73;;;10.13;;
11604;SDS011;5858;43.076;25.626;2023-01-30T14:35:01;23.00;;;12.37;;
11604;SDS011;5858;43.076;25.626;2023-01-30T14:38:52;24.63;;;13.10;;
11604;SDS011;5858;43.076;25.626;2023-01-30T14:41:23;22.97;;;14.40;;
11604;SDS011;5858;43.076;25.626;2023-01-30T14:57:47;24.00;;;13.07;;
11604;SDS011;5858;43.076;25.626;2023-01-30T15:00:31;26.33;;;15.97;;
11604;SDS011;5858;43.076;25.626;2023-01-30T15:03:27;30.50;;;17.50;;
11604;SDS011;5858;43.076;25.626;2023-01-30T15:06:20;20.77;;;13.10;;
11604;SDS011;5858;43.076;25.626;2023-01-30T15:09:40;20.87;;;12.97;;
11604;SDS011;5858;43.076;25.626;2023-01-30T15:13:02;22.87;;;14.73;;
11604;SDS011;5858;43.076;25.626;2023-01-30T15:16:36;24.80;;;15.23;;
11604;SDS011;5858;43.076;25.626;2023-01-30T15:19:23;30.13;;;16.53;;
11604;SDS011;5858;43.076;25.626;2023-01-30T15:22:05;27.13;;;15.63;;
11604;SDS011;5858;43.076;25.626;2023-01-30T15:24:54;28.07;;;15.70;;
11604;SDS011;5858;43.076;25.626;2023-01-30T15:27:43;21.70;;;13.87;;
11604;SDS011;5858;43.076;25.626;2023-01-30T15:30:34;21.67;;;12.37;;
11604;SDS011;5858;43.076;25.626;2023-01-30T15:33:13;20.70;;;12.93;;
11604;SDS011;5858;43.076;25.626;2023-01-30T15:35:42;26.20;;;13.50;;
11604;SDS011;5858;43.076;25.626;2023-01-30T15:38:23;26.83;;;13.73;;
11604;SDS011;5858;43.076;25.626;2023-01-30T15:40:58;25.93;;;14.77;;
11604;SDS011;5858;43.076;25.626;2023-01-30T15:43:43;21.00;;;11.50;;
11604;SDS011;5858;43.076;25.626;2023-01-30T15:46:26;24.60;;;12.63;;
11604;SDS011;5858;43.076;25.626;2023-01-30T15:49:10;25.03;;;14.27;;
11604;SDS011;5858;43.076;25.626;2023-01-30T15:51:49;28.93;;;14.13;;
11604;SDS011;5858;43.076;25.626;2023-01-30T15:54:18;30.07;;;16.03;;
11604;SDS011;5858;43.076;25.626;2023-01-30T15:56:51;21.90;;;12.80;;
11604;SDS011;5858;43.076;25.626;2023-01-30T15:59:41;25.73;;;14.37;;
11604;SDS011;5858;43.076;25.626;2023-01-30T16:06:30;24.70;;;12.83;;
11604;SDS011;5858;43.076;25.626;2023-01-30T16:09:17;22.80;;;13.53;;
11604;SDS011;5858;43.076;25.626;2023-01-30T16:13:58;25.60;;;14.53;;
11604;SDS011;5858;43.076;25.626;2023-01-30T16:19:06;24.57;;;14.43;;
11604;SDS011;5858;43.076;25.626;2023-01-30T16:21:49;26.43;;;14.83;;
11604;SDS011;5858;43.076;25.626;2023-01-30T16:24:55;22.27;;;13.07;;
11604;SDS011;5858;43.076;25.626;2023-01-30T16:27:42;22.50;;;13.60;;
11604;SDS011;5858;43.076;25.626;2023-01-30T16:58:19;43.33;;;22.60;;
11604;SDS011;5858;43.076;25.626;2023-01-30T17:01:06;49.87;;;22.40;;
11604;SDS011;5858;43.076;25.626;2023-01-30T17:03:48;46.00;;;25.47;;
11604;SDS011;5858;43.076;25.626;2023-01-30T17:06:35;56.43;;;30.73;;
11604;SDS011;5858;43.076;25.626;2023-01-30T17:09:05;52.43;;;28.23;;
11604;SDS011;5858;43.076;25.626;2023-01-30T17:18:01;63.00;;;31.17;;
11604;SDS011;5858;43.076;25.626;2023-01-30T17:20:37;47.60;;;29.93;;
11604;SDS011;5858;43.076;25.626;2023-01-30T17:23:13;56.43;;;30.20;;
11604;SDS011;5858;43.076;25.626;2023-01-30T17:25:48;46.57;;;26.13;;
11604;SDS011;5858;43.076;25.626;2023-01-30T17:28:40;46.27;;;24.23;;
11604;SDS011;5858;43.076;25.626;2023-01-30T17:31:11;49.50;;;23.77;;
11604;SDS011;5858;43.076;25.626;2023-01-30T17:33:56;41.07;;;20.87;;
11604;SDS011;5858;43.076;25.626;2023-01-30T17:36:31;37.90;;;17.60;;
11604;SDS011;5858;43.076;25.626;2023-01-30T17:39:10;37.83;;;19.90;;
11604;SDS011;5858;43.076;25.626;2023-01-30T17:41:49;66.07;;;36.27;;
11604;SDS011;5858;43.076;25.626;2023-01-30T17:44:23;47.50;;;30.43;;
11604;SDS011;5858;43.076;25.626;2023-01-30T17:46:50;32.03;;;19.07;;
11604;SDS011;5858;43.076;25.626;2023-01-30T17:49:17;33.43;;;18.83;;
11604;SDS011;5858;43.076;25.626;2023-01-30T17:51:46;31.03;;;18.70;;
11604;SDS011;5858;43.076;25.626;2023-01-30T17:54:13;42.20;;;20.83;;
11604;SDS011;5858;43.076;25.626;2023-01-30T17:56:44;33.13;;;19.60;;
11604;SDS011;5858;43.076;25.626;2023-01-30T17:59:14;43.33;;;22.27;;
11604;SDS011;5858;43.076;25.626;2023-01-30T18:01:44;42.57;;;23.10;;
11604;SDS011;5858;43.076;25.626;2023-01-30T18:04:12;40.03;;;24.37;;
11604;SDS011;5858;43.076;25.626;2023-01-30T18:06:42;40.30;;;24.10;;
11604;SDS011;5858;43.076;25.626;2023-01-30T18:09:13;43.23;;;28.93;;
11604;SDS011;5858;43.076;25.626;2023-01-30T18:11:49;39.50;;;22.03;;